createdAt,value
2023-08-10T00:02:10.038Z,101680.72
2023-08-10T00:04:42.734Z,101676.16
2023-08-10T00:07:12.696Z,101681.38
2023-08-10T00:09:42.773Z,101681.38
2023-08-10T00:12:12.914Z,101681.25
2023-08-10T00:14:43.008Z,101685.63
2023-08-10T00:17:13.252Z,101683.72
2023-08-10T00:19:45.894Z,101686.34
2023-08-10T00:22:17.411Z,101681.97
2023-08-10T00:24:48.547Z,101694.13
2023-08-10T00:27:18.619Z,101687.94
2023-08-10T00:29:48.541Z,101687.94
2023-08-10T00:32:20.634Z,101687.13
2023-08-10T00:34:53.406Z,101694.16
2023-08-10T00:37:23.403Z,101697.75
2023-08-10T00:39:53.488Z,101695.91
2023-08-10T00:42:23.520Z,101688.88
2023-08-10T00:44:53.456Z,101698.44
2023-08-10T00:47:23.966Z,101691.44
2023-08-10T00:49:56.681Z,101695.81
2023-08-10T00:52:26.882Z,101703.72
2023-08-10T00:54:56.827Z,101704.50
2023-08-10T00:57:26.821Z,101704.38
2023-08-10T01:00:11.237Z,101701.69
2023-08-10T01:02:41.959Z,101699.13
2023-08-10T01:05:16.173Z,101710.53
2023-08-10T01:07:52.918Z,101706.91
2023-08-10T01:14:09.900Z,101711.19
2023-08-10T01:16:51.944Z,101713.88
2023-08-10T01:19:33.887Z,101712.13
2023-08-10T01:22:14.241Z,101715.72
2023-08-10T01:24:52.798Z,101713.19
2023-08-10T01:27:41.801Z,101716.88
2023-08-10T01:30:17.139Z,101717.72
2023-08-10T01:32:49.435Z,101725.53
2023-08-10T01:36:10.889Z,101728.16
2023-08-10T01:38:45.162Z,101718.44
2023-08-10T01:41:14.974Z,101722.88
2023-08-10T01:43:47.411Z,101724.75
2023-08-10T01:46:18.838Z,101719.50
2023-08-10T01:48:49.986Z,101722.22
2023-08-10T01:51:22.602Z,101722.28
2023-08-10T01:53:52.782Z,101732.66
2023-08-10T01:56:22.854Z,101730.03
2023-08-10T01:58:56.194Z,101724.56
2023-08-10T02:01:25.995Z,101734.16
2023-08-10T02:03:55.846Z,101733.25
2023-08-10T02:06:25.677Z,101723.59
2023-08-10T02:08:55.474Z,101733.31
2023-08-10T02:11:25.384Z,101734.25
2023-08-10T02:13:59.776Z,101736.06
2023-08-10T02:16:29.570Z,101730.00
2023-08-10T02:18:59.381Z,101733.50
2023-08-10T02:21:29.304Z,101728.25
2023-08-10T02:23:59.135Z,101730.00
2023-08-10T02:26:29.003Z,101730.88
2023-08-10T02:29:01.496Z,101734.44
2023-08-10T02:31:31.314Z,101727.47
2023-08-10T02:34:01.121Z,101732.66
2023-08-10T02:36:31.762Z,101729.06
2023-08-10T02:39:01.998Z,101728.25
2023-08-10T02:41:31.786Z,101726.44
2023-08-10T02:44:04.174Z,101728.16
2023-08-10T02:46:33.982Z,101734.25
2023-08-10T02:49:03.761Z,101728.06
2023-08-10T02:51:33.524Z,101734.16
2023-08-10T02:54:03.302Z,101738.53
2023-08-10T02:56:33.086Z,101725.44
2023-08-10T02:59:05.473Z,101721.75
2023-08-10T03:01:35.367Z,101720.78
2023-08-10T03:04:06.096Z,101725.16
2023-08-10T03:06:36.015Z,101729.38
2023-08-10T03:09:07.974Z,101732.75
2023-08-10T03:11:38.069Z,101742.25
2023-08-10T03:14:10.586Z,101740.34
2023-08-10T03:16:40.413Z,101744.59
2023-08-10T03:19:10.907Z,101739.88
2023-08-10T03:21:41.085Z,101737.22
2023-08-10T03:24:11.548Z,101741.59
2023-08-10T03:26:41.302Z,101733.69
2023-08-10T03:29:14.298Z,101734.63
2023-08-10T03:31:44.424Z,101735.28
2023-08-10T03:34:15.125Z,101729.06
2023-08-10T03:36:44.996Z,101734.22
2023-08-10T03:39:14.901Z,101728.97
2023-08-10T03:41:44.844Z,101738.50
2023-08-10T03:44:17.745Z,101733.22
2023-08-10T03:46:49.174Z,101736.59
2023-08-10T03:49:20.980Z,101739.28
2023-08-10T03:51:51.404Z,101741.13
2023-08-10T03:54:21.233Z,101742.97
2023-08-10T03:56:51.002Z,101754.22
2023-08-10T03:59:23.424Z,101751.38
2023-08-10T04:01:55.426Z,101747.81
2023-08-10T04:04:25.472Z,101752.28
2023-08-10T04:06:55.371Z,101759.88
2023-08-10T04:09:25.163Z,101759.66
2023-08-10T04:11:55.564Z,101758.53
2023-08-10T04:14:28.699Z,101761.88
2023-08-10T04:16:59.286Z,101766.16
2023-08-10T04:19:29.309Z,101760.91
2023-08-10T04:21:59.069Z,101767.09
2023-08-10T04:24:28.873Z,101766.16
2023-08-10T04:26:58.689Z,101761.78
2023-08-10T04:29:31.157Z,101765.25
2023-08-10T04:32:00.933Z,101765.34
2023-08-10T04:34:30.645Z,101761.94
2023-08-10T04:37:00.411Z,101757.41
2023-08-10T04:39:30.898Z,101766.16
2023-08-10T04:42:00.687Z,101769.66
2023-08-10T04:44:33.054Z,101774.88
2023-08-10T04:47:02.781Z,101771.31
2023-08-10T04:49:33.095Z,101762.50
2023-08-10T04:52:03.311Z,101772.91
2023-08-10T04:54:33.298Z,101772.13
2023-08-10T04:57:03.118Z,101769.44
2023-08-10T04:59:35.422Z,101758.19
2023-08-10T05:02:06.325Z,101756.38
2023-08-10T05:04:36.471Z,101768.53
2023-08-10T05:07:06.410Z,101763.19
2023-08-10T05:09:54.011Z,101769.44
2023-08-10T05:12:25.343Z,101770.38
2023-08-10T05:14:57.713Z,101769.53
2023-08-10T05:17:28.010Z,101772.16
2023-08-10T05:19:58.032Z,101781.72
2023-08-10T05:22:27.992Z,101776.84
2023-08-10T05:24:57.822Z,101777.94
2023-08-10T05:27:27.556Z,101784.16
2023-08-10T05:29:59.983Z,101784.28
2023-08-10T05:32:29.895Z,101781.00
2023-08-10T05:34:59.651Z,101783.75
2023-08-10T05:37:29.475Z,101783.94
2023-08-10T05:39:59.238Z,101787.53
2023-08-10T05:42:29.218Z,101786.88
2023-08-10T05:45:01.616Z,101791.44
2023-08-10T05:47:31.378Z,101789.00
2023-08-10T05:50:01.287Z,101791.84
2023-08-10T05:52:31.129Z,101781.38
2023-08-10T05:55:00.932Z,101786.84
2023-08-10T05:57:30.688Z,101801.84
2023-08-10T06:00:03.343Z,101794.13
2023-08-10T06:02:43.873Z,101797.72
2023-08-10T06:05:14.090Z,101800.53
2023-08-10T06:07:43.934Z,101800.66
2023-08-10T06:10:14.721Z,101803.44
2023-08-10T06:12:44.579Z,101808.00
2023-08-10T06:15:17.312Z,101809.91
2023-08-10T06:17:47.313Z,101810.09
2023-08-10T06:20:18.507Z,101809.31
2023-08-10T06:22:48.466Z,101807.69
2023-08-10T06:25:18.818Z,101803.63
2023-08-10T06:27:50.993Z,101804.72
2023-08-10T06:30:24.309Z,101811.91
2023-08-10T06:32:54.380Z,101816.38
2023-08-10T06:35:24.447Z,101807.72
2023-08-10T06:37:54.335Z,101809.72
2023-08-10T06:40:25.845Z,101809.91
2023-08-10T06:42:56.839Z,101815.34
2023-08-10T06:45:39.426Z,101810.16
2023-08-10T06:48:09.593Z,101814.56
2023-08-10T06:50:39.367Z,101816.59
2023-08-10T06:53:09.643Z,101818.50
2023-08-10T06:55:39.692Z,101826.41
2023-08-10T06:58:09.798Z,101823.94
2023-08-10T07:00:42.584Z,101821.50
2023-08-10T07:03:12.524Z,101822.63
2023-08-10T07:05:46.507Z,101827.38
2023-08-10T07:08:16.320Z,101826.59
2023-08-10T07:10:46.344Z,101817.91
2023-08-10T07:13:16.496Z,101812.72
2023-08-10T07:15:49.702Z,101814.69
2023-08-10T07:18:19.639Z,101817.47
2023-08-10T07:20:50.016Z,101812.22
2023-08-10T07:23:21.721Z,101820.28
2023-08-10T07:25:51.798Z,101814.19
2023-08-10T07:28:22.569Z,101826.59
2023-08-10T07:30:55.448Z,101825.06
2023-08-10T07:33:25.463Z,101830.47
2023-08-10T07:35:55.652Z,101827.94
2023-08-10T07:38:25.693Z,101826.31
2023-08-10T07:40:55.694Z,101822.94
2023-08-10T07:43:25.852Z,101833.78
2023-08-10T07:45:58.378Z,101828.66
2023-08-10T07:48:28.896Z,101830.50
2023-08-10T07:51:00.137Z,101826.31
2023-08-10T07:53:29.976Z,101834.63
2023-08-10T07:56:00.116Z,101830.63
2023-08-10T07:58:30.433Z,101825.81
2023-08-10T08:01:02.940Z,101820.13
2023-08-10T08:03:33.263Z,101830.22
2023-08-10T08:06:03.252Z,101821.16
2023-08-10T08:08:33.505Z,101833.13
2023-08-10T08:11:03.425Z,101825.19
2023-08-10T08:13:34.487Z,101828.81
2023-08-10T08:16:07.581Z,101828.19
2023-08-10T08:18:48.736Z,101832.09
2023-08-10T08:21:20.064Z,101839.19
2023-08-10T08:23:51.168Z,101839.09
2023-08-10T08:26:22.405Z,101840.66
2023-08-10T08:28:52.590Z,101843.09
2023-08-10T08:31:26.969Z,101843.25
2023-08-10T08:33:57.494Z,101850.09
2023-08-10T08:36:28.040Z,101845.38
2023-08-10T08:38:58.467Z,101842.34
2023-08-10T08:41:32.005Z,101852.53
2023-08-10T08:44:01.911Z,101849.28
2023-08-10T08:46:37.124Z,101851.94
2023-08-10T08:49:07.134Z,101854.53
2023-08-10T08:51:40.002Z,101849.16
2023-08-10T08:54:10.663Z,101854.28
2023-08-10T08:56:40.890Z,101858.69
2023-08-10T08:59:10.797Z,101848.38
2023-08-10T09:01:44.233Z,101859.28
2023-08-10T09:04:14.425Z,101861.25
2023-08-10T09:06:44.385Z,101862.31
2023-08-10T09:09:14.307Z,101850.03
2023-08-10T09:11:44.326Z,101840.31
2023-08-10T09:14:14.688Z,101842.84
2023-08-10T09:16:47.507Z,101841.06
2023-08-10T09:19:17.550Z,101837.63
2023-08-10T09:21:50.808Z,101835.00
2023-08-10T09:24:21.738Z,101838.53
2023-08-10T09:26:51.869Z,101839.34
2023-08-10T09:29:35.306Z,101837.47
2023-08-10T09:32:08.555Z,101846.19
2023-08-10T09:34:38.623Z,101841.63
2023-08-10T09:37:09.135Z,101846.00
2023-08-10T09:39:39.108Z,101841.00
2023-08-10T09:42:09.709Z,101839.34
2023-08-10T09:44:48.382Z,101843.72
2023-08-10T09:47:21.937Z,101850.00
2023-08-10T09:50:02.326Z,101851.00
2023-08-10T09:52:32.845Z,101848.28
2023-08-10T09:55:02.934Z,101857.94
2023-08-10T09:57:33.134Z,101854.50
2023-08-10T10:00:05.724Z,101848.31
2023-08-10T10:02:38.441Z,101851.84
2023-08-10T10:05:14.240Z,101834.97
2023-08-10T10:07:48.015Z,101846.53
2023-08-10T10:10:19.003Z,101842.03
2023-08-10T10:12:52.942Z,101845.50
2023-08-10T10:15:23.614Z,101856.13
2023-08-10T10:17:56.282Z,101844.50
2023-08-10T10:20:29.419Z,101848.91
2023-08-10T10:22:59.458Z,101843.47
2023-08-10T10:25:29.930Z,101842.69
2023-08-10T10:28:00.037Z,101849.88
2023-08-10T10:30:31.265Z,101846.16
2023-08-10T10:33:05.325Z,101844.41
2023-08-10T10:35:37.695Z,101840.78
2023-08-10T10:38:09.038Z,101838.84
2023-08-10T10:40:39.353Z,101843.59
2023-08-10T10:43:10.540Z,101852.63
2023-08-10T10:45:42.739Z,101858.03
2023-08-10T10:48:17.914Z,101850.03
2023-08-10T10:50:48.164Z,101848.25
2023-08-10T10:53:20.335Z,101840.06
2023-08-10T10:55:50.816Z,101834.53
2023-08-10T10:58:21.186Z,101832.00
2023-08-10T11:00:51.720Z,101838.38
2023-08-10T11:03:24.698Z,101849.09
2023-08-10T11:05:54.746Z,101835.75
2023-08-10T11:08:25.395Z,101837.59
2023-08-10T11:10:57.364Z,101836.72
2023-08-10T11:13:27.863Z,101817.94
2023-08-10T11:15:57.825Z,101816.84
2023-08-10T11:18:30.502Z,101820.50
2023-08-10T11:21:00.332Z,101818.88
2023-08-10T11:23:30.353Z,101820.72
2023-08-10T11:26:00.434Z,101829.59
2023-08-10T11:28:32.659Z,101815.44
2023-08-10T11:31:05.761Z,101822.56
2023-08-10T11:33:38.653Z,101826.09
2023-08-10T11:36:09.418Z,101821.56
2023-08-10T11:38:48.423Z,101831.34
2023-08-10T11:41:18.376Z,101820.75
2023-08-10T11:43:50.429Z,101828.75
2023-08-10T11:46:22.079Z,101820.66
2023-08-10T11:48:56.527Z,101812.44
2023-08-10T11:51:26.882Z,101807.00
2023-08-10T11:53:57.063Z,101815.19
2023-08-10T11:56:27.275Z,101809.94
2023-08-10T11:58:58.068Z,101813.56
2023-08-10T12:01:28.331Z,101810.97
2023-08-10T12:04:00.902Z,101804.66
2023-08-10T12:06:30.921Z,101804.59
2023-08-10T12:09:01.269Z,101802.00
2023-08-10T12:11:30.880Z,101801.19
2023-08-10T12:14:01.281Z,101801.16
2023-08-10T12:16:31.538Z,101810.06
2023-08-10T12:19:03.836Z,101802.00
2023-08-10T12:21:34.253Z,101801.88
2023-08-10T12:24:04.688Z,101802.63
2023-08-10T12:26:34.608Z,101796.22
2023-08-10T12:29:05.692Z,101789.81
2023-08-10T12:31:35.877Z,101794.28
2023-08-10T12:34:08.305Z,101792.38
2023-08-10T12:36:38.727Z,101798.56
2023-08-10T12:39:09.436Z,101793.25
2023-08-10T12:41:42.265Z,101802.91
2023-08-10T12:44:12.736Z,101800.94
2023-08-10T12:46:43.024Z,101791.06
2023-08-10T12:49:15.240Z,101805.19
2023-08-10T12:51:45.223Z,101805.19
2023-08-10T12:54:15.287Z,101798.09
2023-08-10T12:56:45.223Z,101807.06
2023-08-10T13:01:52.988Z,101805.22
2023-08-10T13:07:32.407Z,101801.72
2023-08-10T13:07:50.125Z,101800.16
2023-08-10T13:10:44.516Z,101800.00
2023-08-10T13:13:35.467Z,101801.03
2023-08-10T13:16:14.200Z,101802.00
2023-08-10T13:18:56.519Z,101804.75
2023-08-10T13:21:29.602Z,101805.66
2023-08-10T13:23:59.687Z,101807.38
2023-08-10T13:26:34.169Z,101797.47
2023-08-10T13:29:04.145Z,101803.59
2023-08-10T13:32:26.247Z,101800.97
2023-08-10T13:35:03.343Z,101804.81
2023-08-10T13:37:52.212Z,101796.91
2023-08-10T13:40:30.726Z,101809.38
2023-08-10T13:43:02.051Z,101796.13
2023-08-10T13:46:14.951Z,101795.28
2023-08-10T13:48:54.709Z,101791.72
2023-08-10T13:51:24.592Z,101802.28
2023-08-10T13:54:37.565Z,101797.72
2023-08-10T13:57:24.442Z,101787.94
2023-08-10T13:59:54.949Z,101795.13
2023-08-10T14:02:25.668Z,101793.22
2023-08-10T14:04:55.645Z,101794.13
2023-08-10T14:07:54.718Z,101802.31
2023-08-10T14:13:42.811Z,101795.47
2023-08-10T14:19:05.997Z,101798.22
2023-08-10T14:21:36.226Z,101799.09
2023-08-10T14:24:07.000Z,101807.16
2023-08-10T14:26:36.973Z,101797.44
2023-08-10T14:29:28.869Z,101794.72
2023-08-10T14:35:28.979Z,101800.03
2023-08-10T14:37:58.933Z,101797.38
2023-08-10T14:40:30.558Z,101791.22
2023-08-10T14:43:03.938Z,101795.69
2023-08-10T14:45:36.430Z,101801.97
2023-08-10T14:48:06.700Z,101810.84
2023-08-10T14:50:40.452Z,101792.16
2023-08-10T14:53:25.606Z,101797.50
2023-08-10T14:55:55.537Z,101793.94
2023-08-10T14:58:52.605Z,101795.75
2023-08-10T15:01:26.557Z,101804.69
2023-08-10T15:03:56.567Z,101797.59
2023-08-10T15:06:26.451Z,101799.38
2023-08-10T15:08:56.408Z,101795.81
2023-08-10T15:11:26.518Z,101794.94
2023-08-10T15:13:56.555Z,101797.59
2023-08-10T15:16:29.084Z,101794.09
2023-08-10T15:19:02.227Z,101794.97
2023-08-10T15:21:32.135Z,101794.03
2023-08-10T15:24:04.962Z,101801.16
2023-08-10T15:26:34.792Z,101797.63
2023-08-10T15:29:04.781Z,101808.25
2023-08-10T15:31:37.266Z,101805.63
2023-08-10T15:34:07.491Z,101806.53
2023-08-10T15:36:37.132Z,101799.41
2023-08-10T15:39:24.845Z,101800.31
2023-08-10T15:41:56.489Z,101797.63
2023-08-10T15:44:50.239Z,101789.63
2023-08-10T15:50:16.345Z,101797.63
2023-08-10T15:52:46.575Z,101796.78
2023-08-10T15:55:21.876Z,101798.53
2023-08-10T15:57:55.922Z,101791.44
2023-08-10T16:00:34.920Z,101789.69
2023-08-10T16:03:15.779Z,101789.66
2023-08-10T16:05:52.652Z,101784.34
2023-08-10T16:08:32.551Z,101787.03
2023-08-10T16:14:21.936Z,101784.38
2023-08-10T16:40:50.477Z,101783.47
2023-08-10T16:43:28.815Z,101774.63
2023-08-10T16:46:24.417Z,101783.50
2023-08-10T16:53:16.544Z,101787.88
2023-08-10T16:56:03.209Z,101782.53
2023-08-10T16:59:21.025Z,101781.66
2023-08-10T17:02:23.471Z,101783.44
2023-08-10T17:11:47.354Z,101797.59
2023-08-10T17:14:17.119Z,101797.59
2023-08-10T17:16:47.059Z,101798.47
2023-08-10T17:19:16.845Z,101798.50
2023-08-10T17:21:46.673Z,101800.25
2023-08-10T17:24:16.482Z,101805.56
2023-08-10T17:26:48.944Z,101800.25
2023-08-10T17:29:21.493Z,101806.44
2023-08-10T17:31:51.615Z,101811.72
2023-08-10T17:34:21.415Z,101805.53
2023-08-10T17:36:51.185Z,101809.94
2023-08-10T17:39:21.056Z,101803.72
2023-08-10T17:41:53.432Z,101797.50
2023-08-10T17:44:23.247Z,101806.34
2023-08-10T17:46:53.072Z,101805.47
2023-08-10T17:49:22.956Z,101801.94
2023-08-10T17:51:53.662Z,101799.25
2023-08-10T17:54:23.487Z,101797.44
2023-08-10T17:56:55.862Z,101789.47
2023-08-10T17:59:25.681Z,101791.22
2023-08-10T18:01:55.459Z,101794.75
2023-08-10T18:04:25.337Z,101800.94
2023-08-10T18:06:55.200Z,101794.72
2023-08-10T18:09:25.004Z,101789.38
2023-08-10T18:11:57.350Z,101785.78
2023-08-10T18:14:27.191Z,101788.44
2023-08-10T18:16:57.051Z,101791.97
2023-08-10T18:19:27.056Z,101792.81
2023-08-10T18:21:57.339Z,101789.28
2023-08-10T18:24:26.990Z,101793.63
2023-08-10T18:27:06.548Z,101796.25
2023-08-10T18:29:36.403Z,101797.97
2023-08-10T18:32:07.184Z,101794.38
2023-08-10T18:34:37.443Z,101797.06
2023-08-10T18:37:09.338Z,101791.72
2023-08-10T18:39:39.469Z,101796.09
2023-08-10T18:42:12.697Z,101802.31
2023-08-10T18:44:42.441Z,101801.38
2023-08-10T18:47:12.195Z,101803.97
2023-08-10T18:49:42.190Z,101811.91
2023-08-10T18:52:11.946Z,101809.25
2023-08-10T18:54:41.963Z,101810.97
2023-08-10T18:57:16.456Z,101807.44
2023-08-10T19:02:02.834Z,101812.72
2023-08-10T19:04:32.923Z,101819.69
2023-08-10T19:07:02.982Z,101819.63
2023-08-10T19:09:35.011Z,101814.28
2023-08-10T19:12:07.914Z,101820.47
2023-08-10T19:14:40.658Z,101817.81
2023-08-10T19:17:11.463Z,101827.47
2023-08-10T19:19:41.676Z,101822.06
2023-08-10T19:22:11.860Z,101824.66
2023-08-10T19:24:42.357Z,101829.03
2023-08-10T19:27:12.667Z,101825.47
2023-08-10T19:29:45.495Z,101829.84
2023-08-10T19:32:15.713Z,101835.13
2023-08-10T19:34:46.287Z,101828.06
2023-08-10T19:37:16.620Z,101831.63
2023-08-10T19:39:47.601Z,101835.16
2023-08-10T19:42:17.963Z,101831.56
2023-08-10T19:44:50.923Z,101829.72
2023-08-10T19:47:22.135Z,101836.75
2023-08-10T19:49:55.200Z,101834.06
2023-08-10T19:52:25.218Z,101837.66
2023-08-10T19:54:55.401Z,101840.28
2023-08-10T19:57:25.545Z,101840.25
2023-08-10T19:59:58.432Z,101835.84
2023-08-10T20:02:29.837Z,101837.53
2023-08-10T20:05:00.124Z,101842.75
2023-08-10T20:07:32.005Z,101845.41
2023-08-10T20:10:02.365Z,101841.00
2023-08-10T20:12:32.547Z,101838.34
2023-08-10T20:15:05.464Z,101840.09
2023-08-10T20:17:39.571Z,101847.09
2023-08-10T20:20:13.574Z,101844.44
2023-08-10T20:22:44.074Z,101839.94
2023-08-10T20:25:13.890Z,101844.38
2023-08-10T20:27:44.523Z,101846.22
2023-08-10T20:30:18.017Z,101838.19
2023-08-10T20:32:51.181Z,101840.78
2023-08-10T20:35:21.723Z,101836.41
2023-08-10T20:37:51.431Z,101843.44
2023-08-10T20:40:22.062Z,101849.59
2023-08-10T20:42:52.639Z,101836.38
2023-08-10T20:45:25.905Z,101836.28
2023-08-10T20:47:57.084Z,101835.34
2023-08-10T20:50:27.103Z,101839.75
2023-08-10T20:52:57.802Z,101825.56
2023-08-10T20:55:28.964Z,101825.50
2023-08-10T20:57:59.366Z,101826.47
2023-08-10T21:00:32.308Z,101834.41
2023-08-10T21:03:02.687Z,101829.13
2023-08-10T21:05:32.404Z,101835.38
2023-08-10T21:08:03.178Z,101838.88
2023-08-10T21:10:35.015Z,101841.59
2023-08-10T21:13:05.503Z,101837.09
2023-08-10T21:15:37.909Z,101830.72
2023-08-10T21:18:08.471Z,101838.59
2023-08-10T21:20:39.748Z,101838.50
2023-08-10T21:23:09.854Z,101841.19
2023-08-10T21:25:39.981Z,101843.88
2023-08-10T21:28:10.485Z,101846.56
2023-08-10T21:30:43.171Z,101850.16
2023-08-10T21:33:13.805Z,101840.44
2023-08-10T21:35:43.783Z,101848.38
2023-08-10T21:38:13.885Z,101851.00
2023-08-10T21:40:43.883Z,101853.63
2023-08-10T21:43:13.997Z,101846.47
2023-08-10T21:45:47.276Z,101847.28
2023-08-10T21:48:17.151Z,101848.13
2023-08-10T21:50:47.473Z,101849.88
2023-08-10T21:53:17.247Z,101849.78
2023-08-10T21:55:47.064Z,101851.53
2023-08-10T21:58:17.701Z,101847.94
2023-08-10T22:00:50.653Z,101849.59
2023-08-10T22:03:20.668Z,101850.53
2023-08-10T22:05:51.226Z,101841.66
2023-08-10T22:08:21.586Z,101847.81
2023-08-10T22:10:51.961Z,101851.19
2023-08-10T22:13:21.650Z,101850.25
2023-08-10T22:15:54.477Z,101844.97
2023-08-10T22:18:24.660Z,101849.22
2023-08-10T22:20:54.721Z,101850.06
2023-08-10T22:23:24.623Z,101850.94
2023-08-10T22:25:56.054Z,101842.16
2023-08-10T22:28:26.358Z,101846.63
2023-08-10T22:30:59.094Z,101847.59
2023-08-10T22:33:29.319Z,101849.41
2023-08-10T22:35:59.466Z,101841.38
2023-08-10T22:38:29.604Z,101842.16
2023-08-10T22:40:59.622Z,101842.16
2023-08-10T22:43:29.903Z,101847.44
2023-08-10T22:46:02.441Z,101844.91
2023-08-10T22:48:32.613Z,101845.00
2023-08-10T22:51:03.341Z,101848.53
2023-08-10T22:53:33.386Z,101846.69
2023-08-10T22:56:03.522Z,101844.91
2023-08-10T22:58:36.706Z,101844.03
2023-08-10T23:01:09.371Z,101847.59
2023-08-10T23:03:40.725Z,101847.69
2023-08-10T23:06:10.561Z,101849.50
2023-08-10T23:08:40.819Z,101849.47
2023-08-10T23:11:10.710Z,101845.06
2023-08-10T23:13:41.510Z,101840.69
2023-08-10T23:16:15.092Z,101842.41
2023-08-10T23:18:45.524Z,101855.69
2023-08-10T23:21:16.055Z,101846.88
2023-08-10T23:23:47.077Z,101849.50
2023-08-10T23:26:17.207Z,101853.88
2023-08-10T23:28:47.325Z,101851.22
2023-08-10T23:31:20.605Z,101846.84
2023-08-10T23:33:50.885Z,101854.75
2023-08-10T23:36:21.164Z,101851.22
2023-08-10T23:38:52.254Z,101847.75
2023-08-10T23:41:22.278Z,101846.91
2023-08-10T23:43:52.515Z,101843.34
2023-08-10T23:46:25.649Z,101852.06
2023-08-10T23:48:56.339Z,101856.53
2023-08-10T23:51:26.316Z,101841.56
2023-08-10T23:53:56.553Z,101847.69
2023-08-10T23:56:26.552Z,101843.19
2023-08-10T23:58:57.334Z,101845.78
